sensor_id;sensor_type;location;lat;lon;timestamp;pressure;altitude;pressure_sealevel;temperature;humidity
47080;BME280;33067;49.296;14.470;2022-10-16T00:01:12;96993.58;;;19.01;43.49
47080;BME280;33067;49.296;14.470;2022-10-16T00:03:35;96993.13;;;18.97;43.52
47080;BME280;33067;49.296;14.470;2022-10-16T00:06:01;96982.48;;;18.84;43.57
47080;BME280;33067;49.296;14.470;2022-10-16T00:08:27;96985.51;;;18.74;43.81
47080;BME280;33067;49.296;14.470;2022-10-16T00:10:52;96995.67;;;18.78;43.74
47080;BME280;33067;49.296;14.470;2022-10-16T00:13:17;97008.64;;;18.78;43.67
47080;BME280;33067;49.296;14.470;2022-10-16T00:15:42;97015.84;;;18.78;43.64
47080;BME280;33067;49.296;14.470;2022-10-16T00:18:08;97012.89;;;18.69;43.88
47080;BME280;33067;49.296;14.470;2022-10-16T00:20:34;97006.13;;;18.71;43.97
47080;BME280;33067;49.296;14.470;2022-10-16T00:23:00;97012.84;;;18.69;44.00
47080;BME280;33067;49.296;14.470;2022-10-16T00:25:25;97014.24;;;18.97;44.04
47080;BME280;33067;49.296;14.470;2022-10-16T00:27:50;97014.40;;;18.72;44.06
47080;BME280;33067;49.296;14.470;2022-10-16T00:30:15;97003.80;;;18.74;44.00
47080;BME280;33067;49.296;14.470;2022-10-16T00:32:40;96994.03;;;18.61;44.13
47080;BME280;33067;49.296;14.470;2022-10-16T00:35:06;96993.17;;;18.52;44.30
47080;BME280;33067;49.296;14.470;2022-10-16T00:37:31;96989.25;;;18.57;44.28
47080;BME280;33067;49.296;14.470;2022-10-16T00:39:56;96982.91;;;18.54;44.31
47080;BME280;33067;49.296;14.470;2022-10-16T00:42:22;96988.90;;;18.60;44.08
47080;BME280;33067;49.296;14.470;2022-10-16T00:44:49;96990.37;;;18.62;43.96
47080;BME280;33067;49.296;14.470;2022-10-16T00:47:17;97001.11;;;19.14;43.80
47080;BME280;33067;49.296;14.470;2022-10-16T00:49:37;97013.64;;;18.76;43.73
47080;BME280;33067;49.296;14.470;2022-10-16T00:52:03;97022.30;;;18.37;44.05
47080;BME280;33067;49.296;14.470;2022-10-16T00:54:30;97023.76;;;18.37;43.97
47080;BME280;33067;49.296;14.470;2022-10-16T00:56:54;97021.36;;;18.40;44.13
47080;BME280;33067;49.296;14.470;2022-10-16T00:59:22;97015.96;;;18.41;43.95
47080;BME280;33067;49.296;14.470;2022-10-16T01:01:45;97007.48;;;18.47;43.80
47080;BME280;33067;49.296;14.470;2022-10-16T01:04:10;97001.42;;;18.47;43.69
47080;BME280;33067;49.296;14.470;2022-10-16T01:06:42;97002.81;;;18.64;43.94
47080;BME280;33067;49.296;14.470;2022-10-16T01:09:11;97005.23;;;18.42;44.00
47080;BME280;33067;49.296;14.470;2022-10-16T01:11:32;97012.16;;;18.52;43.93
47080;BME280;33067;49.296;14.470;2022-10-16T01:13:54;97017.11;;;18.77;43.93
47080;BME280;33067;49.296;14.470;2022-10-16T01:16:23;97017.90;;;18.97;44.08
47080;BME280;33067;49.296;14.470;2022-10-16T01:18:43;97015.76;;;18.45;44.38
47080;BME280;33067;49.296;14.470;2022-10-16T01:21:10;97014.32;;;18.42;44.61
47080;BME280;33067;49.296;14.470;2022-10-16T01:23:42;97008.20;;;18.40;44.75
47080;BME280;33067;49.296;14.470;2022-10-16T01:26:14;97005.19;;;18.41;44.79
47080;BME280;33067;49.296;14.470;2022-10-16T01:28:27;97008.12;;;18.15;45.13
47080;BME280;33067;49.296;14.470;2022-10-16T01:30:48;97010.79;;;18.34;45.08
47080;BME280;33067;49.296;14.470;2022-10-16T01:33:18;97006.52;;;18.41;45.11
47080;BME280;33067;49.296;14.470;2022-10-16T01:35:41;97005.96;;;18.81;44.74
47080;BME280;33067;49.296;14.470;2022-10-16T01:38:07;97009.02;;;18.59;44.72
47080;BME280;33067;49.296;14.470;2022-10-16T01:40:30;97017.21;;;18.40;44.74
47080;BME280;33067;49.296;14.470;2022-10-16T01:42:59;97016.40;;;18.45;44.78
47080;BME280;33067;49.296;14.470;2022-10-16T01:45:20;97015.44;;;18.56;44.56
47080;BME280;33067;49.296;14.470;2022-10-16T01:47:46;97018.22;;;18.59;44.63
47080;BME280;33067;49.296;14.470;2022-10-16T01:50:11;97021.25;;;19.11;44.70
47080;BME280;33067;49.296;14.470;2022-10-16T01:52:37;97023.69;;;18.49;44.96
47080;BME280;33067;49.296;14.470;2022-10-16T01:55:02;97020.69;;;18.61;44.87
47080;BME280;33067;49.296;14.470;2022-10-16T01:57:27;97021.93;;;18.66;44.89
47080;BME280;33067;49.296;14.470;2022-10-16T01:59:54;97025.04;;;18.76;44.66
47080;BME280;33067;49.296;14.470;2022-10-16T02:02:18;97024.48;;;18.75;44.66
47080;BME280;33067;49.296;14.470;2022-10-16T02:04:45;97025.30;;;18.81;44.52
47080;BME280;33067;49.296;14.470;2022-10-16T02:07:07;97027.58;;;18.85;44.30
47080;BME280;33067;49.296;14.470;2022-10-16T02:09:33;97032.96;;;18.88;44.27
47080;BME280;33067;49.296;14.470;2022-10-16T02:13:06;97027.78;;;19.08;43.61
47080;BME280;33067;49.296;14.470;2022-10-16T02:15:26;97031.89;;;19.09;44.37
47080;BME280;33067;49.296;14.470;2022-10-16T02:17:52;97034.73;;;18.79;44.84
47080;BME280;33067;49.296;14.470;2022-10-16T02:20:18;97027.00;;;18.81;45.28
47080;BME280;33067;49.296;14.470;2022-10-16T02:22:45;97025.44;;;18.62;45.64
47080;BME280;33067;49.296;14.470;2022-10-16T02:25:10;97030.13;;;18.51;45.90
47080;BME280;33067;49.296;14.470;2022-10-16T02:27:35;97032.10;;;18.42;45.99
47080;BME280;33067;49.296;14.470;2022-10-16T02:30:02;97032.81;;;18.30;46.12
47080;BME280;33067;49.296;14.470;2022-10-16T02:32:25;97031.82;;;18.01;46.12
47080;BME280;33067;49.296;14.470;2022-10-16T02:34:49;97032.87;;;18.17;46.13
47080;BME280;33067;49.296;14.470;2022-10-16T02:37:14;97035.52;;;18.28;46.15
47080;BME280;33067;49.296;14.470;2022-10-16T02:39:40;97044.56;;;18.22;46.20
47080;BME280;33067;49.296;14.470;2022-10-16T02:42:04;97043.06;;;17.94;46.38
47080;BME280;33067;49.296;14.470;2022-10-16T02:44:30;97042.53;;;18.10;46.61
47080;BME280;33067;49.296;14.470;2022-10-16T02:46:55;97050.35;;;18.14;46.73
47080;BME280;33067;49.296;14.470;2022-10-16T02:49:20;97056.14;;;17.72;46.68
47080;BME280;33067;49.296;14.470;2022-10-16T02:51:46;97054.33;;;17.93;46.67
47080;BME280;33067;49.296;14.470;2022-10-16T02:54:12;97051.93;;;18.13;46.96
47080;BME280;33067;49.296;14.470;2022-10-16T02:56:37;97053.65;;;18.14;46.88
47080;BME280;33067;49.296;14.470;2022-10-16T02:59:02;97050.74;;;18.08;46.94
47080;BME280;33067;49.296;14.470;2022-10-16T03:01:27;97049.78;;;17.97;46.80
47080;BME280;33067;49.296;14.470;2022-10-16T03:03:53;97048.75;;;17.86;46.65
47080;BME280;33067;49.296;14.470;2022-10-16T03:06:18;97050.44;;;17.84;46.73
47080;BME280;33067;49.296;14.470;2022-10-16T03:08:44;97057.23;;;17.64;46.83
47080;BME280;33067;49.296;14.470;2022-10-16T03:11:09;97058.80;;;17.69;47.06
47080;BME280;33067;49.296;14.470;2022-10-16T03:13:34;97061.12;;;17.74;46.86
47080;BME280;33067;49.296;14.470;2022-10-16T03:16:00;97059.98;;;18.06;46.29
47080;BME280;33067;49.296;14.470;2022-10-16T03:18:26;97061.20;;;18.35;45.90
47080;BME280;33067;49.296;14.470;2022-10-16T03:20:51;97061.81;;;18.34;45.46
47080;BME280;33067;49.296;14.470;2022-10-16T03:23:16;97064.69;;;18.75;45.16
47080;BME280;33067;49.296;14.470;2022-10-16T03:25:42;97058.36;;;18.37;44.79
47080;BME280;33067;49.296;14.470;2022-10-16T03:28:07;97056.80;;;18.50;44.52
47080;BME280;33067;49.296;14.470;2022-10-16T03:30:32;97055.28;;;18.16;44.18
47080;BME280;33067;49.296;14.470;2022-10-16T03:32:58;97055.34;;;18.57;44.49
47080;BME280;33067;49.296;14.470;2022-10-16T03:35:24;97057.57;;;18.39;44.54
47080;BME280;33067;49.296;14.470;2022-10-16T03:37:49;97057.65;;;18.46;44.65
47080;BME280;33067;49.296;14.470;2022-10-16T03:40:15;97056.40;;;18.80;44.61
47080;BME280;33067;49.296;14.470;2022-10-16T03:42:40;97056.11;;;18.36;44.75
47080;BME280;33067;49.296;14.470;2022-10-16T03:45:06;97054.78;;;18.24;45.19
47080;BME280;33067;49.296;14.470;2022-10-16T03:47:30;97057.12;;;18.81;45.21
47080;BME280;33067;49.296;14.470;2022-10-16T03:49:55;97064.83;;;18.41;45.10
47080;BME280;33067;49.296;14.470;2022-10-16T03:52:20;97069.64;;;18.48;45.03
47080;BME280;33067;49.296;14.470;2022-10-16T03:54:46;97075.73;;;18.55;44.89
47080;BME280;33067;49.296;14.470;2022-10-16T03:57:11;97082.38;;;18.48;44.72
47080;BME280;33067;49.296;14.470;2022-10-16T03:59:36;97087.59;;;18.45;44.65
47080;BME280;33067;49.296;14.470;2022-10-16T04:02:02;97089.25;;;18.51;44.52
47080;BME280;33067;49.296;14.470;2022-10-16T04:04:28;97086.37;;;18.78;44.52
47080;BME280;33067;49.296;14.470;2022-10-16T04:06:53;97083.40;;;18.56;44.45
47080;BME280;33067;49.296;14.470;2022-10-16T04:09:19;97082.52;;;18.57;44.48
47080;BME280;33067;49.296;14.470;2022-10-16T04:11:45;97084.69;;;18.61;44.40
47080;BME280;33067;49.296;14.470;2022-10-16T04:14:10;97089.47;;;18.66;44.17
47080;BME280;33067;49.296;14.470;2022-10-16T04:16:36;97082.38;;;18.70;43.94
47080;BME280;33067;49.296;14.470;2022-10-16T04:19:01;97077.19;;;18.58;44.02
47080;BME280;33067;49.296;14.470;2022-10-16T04:21:27;97077.99;;;18.59;43.80
47080;BME280;33067;49.296;14.470;2022-10-16T04:23:52;97083.48;;;18.66;44.17
47080;BME280;33067;49.296;14.470;2022-10-16T04:26:17;97092.80;;;18.44;44.20
47080;BME280;33067;49.296;14.470;2022-10-16T04:28:43;97092.83;;;18.44;44.25
47080;BME280;33067;49.296;14.470;2022-10-16T04:31:09;97089.86;;;18.45;44.35
47080;BME280;33067;49.296;14.470;2022-10-16T04:33:35;97088.70;;;18.52;44.34
47080;BME280;33067;49.296;14.470;2022-10-16T04:36:01;97086.54;;;18.56;44.21
47080;BME280;33067;49.296;14.470;2022-10-16T04:38:26;97085.72;;;18.58;44.14
47080;BME280;33067;49.296;14.470;2022-10-16T04:40:51;97091.26;;;18.58;44.19
47080;BME280;33067;49.296;14.470;2022-10-16T04:43:17;97093.68;;;18.62;44.11
47080;BME280;33067;49.296;14.470;2022-10-16T04:45:42;97095.10;;;18.38;44.18
47080;BME280;33067;49.296;14.470;2022-10-16T04:48:07;97099.49;;;18.59;44.22
47080;BME280;33067;49.296;14.470;2022-10-16T04:50:33;97095.23;;;18.59;44.22
47080;BME280;33067;49.296;14.470;2022-10-16T04:52:58;97098.48;;;18.53;44.41
47080;BME280;33067;49.296;14.470;2022-10-16T04:55:23;97104.82;;;18.78;44.51
47080;BME280;33067;49.296;14.470;2022-10-16T04:57:49;97108.78;;;18.56;44.53
47080;BME280;33067;49.296;14.470;2022-10-16T05:00:14;97101.87;;;18.62;44.33
47080;BME280;33067;49.296;14.470;2022-10-16T05:02:39;97102.24;;;18.87;44.42
47080;BME280;33067;49.296;14.470;2022-10-16T05:05:05;97108.56;;;18.65;44.34
47080;BME280;33067;49.296;14.470;2022-10-16T05:07:29;97108.04;;;18.62;44.38
47080;BME280;33067;49.296;14.470;2022-10-16T05:09:54;97109.42;;;19.00;43.01
47080;BME280;33067;49.296;14.470;2022-10-16T05:12:20;97108.67;;;19.10;43.11
47080;BME280;33067;49.296;14.470;2022-10-16T05:14:45;97111.30;;;19.06;43.60
47080;BME280;33067;49.296;14.470;2022-10-16T05:17:10;97115.18;;;18.93;43.93
47080;BME280;33067;49.296;14.470;2022-10-16T05:19:36;97117.99;;;18.85;44.03
47080;BME280;33067;49.296;14.470;2022-10-16T05:22:02;97116.78;;;18.83;44.04
47080;BME280;33067;49.296;14.470;2022-10-16T05:24:26;97118.90;;;18.78;44.15
47080;BME280;33067;49.296;14.470;2022-10-16T05:26:52;97122.70;;;18.80;44.04
47080;BME280;33067;49.296;14.470;2022-10-16T05:29:18;97124.19;;;18.76;44.14
47080;BME280;33067;49.296;14.470;2022-10-16T05:31:49;97123.15;;;18.94;44.15
47080;BME280;33067;49.296;14.470;2022-10-16T05:34:08;97125.68;;;18.94;44.22
47080;BME280;33067;49.296;14.470;2022-10-16T05:36:33;97127.56;;;18.68;44.54
47080;BME280;33067;49.296;14.470;2022-10-16T05:38:59;97136.31;;;18.55;45.18
47080;BME280;33067;49.296;14.470;2022-10-16T05:41:25;97144.13;;;18.71;45.04
47080;BME280;33067;49.296;14.470;2022-10-16T05:43:50;97144.67;;;18.49;45.37
47080;BME280;33067;49.296;14.470;2022-10-16T05:46:15;97146.38;;;18.30;45.83
47080;BME280;33067;49.296;14.470;2022-10-16T05:48:41;97148.89;;;18.39;46.08
47080;BME280;33067;49.296;14.470;2022-10-16T05:51:11;97154.39;;;18.27;46.30
47080;BME280;33067;49.296;14.470;2022-10-16T05:53:33;97154.76;;;18.15;46.49
47080;BME280;33067;49.296;14.470;2022-10-16T05:55:56;97159.72;;;18.31;46.64
47080;BME280;33067;49.296;14.470;2022-10-16T05:58:22;97164.51;;;18.25;46.92
47080;BME280;33067;49.296;14.470;2022-10-16T06:00:53;97170.25;;;18.02;46.96
47080;BME280;33067;49.296;14.470;2022-10-16T06:03:12;97174.61;;;17.83;46.92
47080;BME280;33067;49.296;14.470;2022-10-16T06:05:37;97182.99;;;17.81;46.66
47080;BME280;33067;49.296;14.470;2022-10-16T06:08:03;97182.31;;;18.24;46.28
47080;BME280;33067;49.296;14.470;2022-10-16T06:10:28;97182.86;;;17.91;45.94
47080;BME280;33067;49.296;14.470;2022-10-16T06:12:53;97190.94;;;18.05;45.65
47080;BME280;33067;49.296;14.470;2022-10-16T06:15:18;97191.02;;;18.27;45.48
47080;BME280;33067;49.296;14.470;2022-10-16T06:17:44;97190.62;;;18.20;45.33
47080;BME280;33067;49.296;14.470;2022-10-16T06:20:09;97188.09;;;18.62;45.11
47080;BME280;33067;49.296;14.470;2022-10-16T06:22:34;97189.00;;;18.51;44.98
47080;BME280;33067;49.296;14.470;2022-10-16T06:24:59;97192.39;;;18.62;44.75
47080;BME280;33067;49.296;14.470;2022-10-16T06:27:25;97194.85;;;18.72;44.63
47080;BME280;33067;49.296;14.470;2022-10-16T06:29:51;97198.84;;;18.75;44.64
47080;BME280;33067;49.296;14.470;2022-10-16T06:32:16;97207.92;;;18.80;44.64
47080;BME280;33067;49.296;14.470;2022-10-16T06:34:41;97208.17;;;18.84;44.65
47080;BME280;33067;49.296;14.470;2022-10-16T06:37:06;97215.15;;;18.87;44.65
47080;BME280;33067;49.296;14.470;2022-10-16T06:39:31;97221.56;;;18.64;44.62
47080;BME280;33067;49.296;14.470;2022-10-16T06:41:56;97228.93;;;18.86;44.70
47080;BME280;33067;49.296;14.470;2022-10-16T06:44:22;97233.85;;;18.77;44.83
47080;BME280;33067;49.296;14.470;2022-10-16T06:46:50;97235.65;;;18.84;44.66
47080;BME280;33067;49.296;14.470;2022-10-16T06:49:13;97235.68;;;18.83;44.62
47080;BME280;33067;49.296;14.470;2022-10-16T06:51:39;97235.81;;;18.90;44.59
47080;BME280;33067;49.296;14.470;2022-10-16T06:54:04;97236.91;;;18.87;44.66
47080;BME280;33067;49.296;14.470;2022-10-16T06:56:38;97235.01;;;18.93;44.40
47080;BME280;33067;49.296;14.470;2022-10-16T06:59:10;97235.35;;;18.97;44.30
47080;BME280;33067;49.296;14.470;2022-10-16T07:01:27;97240.29;;;19.04;44.35
47080;BME280;33067;49.296;14.470;2022-10-16T07:03:46;97236.33;;;18.86;44.27
47080;BME280;33067;49.296;14.470;2022-10-16T07:06:13;97237.06;;;18.90;44.09
47080;BME280;33067;49.296;14.470;2022-10-16T07:08:38;97240.60;;;19.08;44.31
47080;BME280;33067;49.296;14.470;2022-10-16T07:11:13;97249.45;;;19.15;44.37
47080;BME280;33067;49.296;14.470;2022-10-16T07:13:34;97252.31;;;19.25;44.38
47080;BME280;33067;49.296;14.470;2022-10-16T07:16:05;97255.55;;;19.25;44.38
47080;BME280;33067;49.296;14.470;2022-10-16T07:20:47;97257.04;;;19.28;44.17
47080;BME280;33067;49.296;14.470;2022-10-16T07:23:12;97261.68;;;18.97;44.20
47080;BME280;33067;49.296;14.470;2022-10-16T07:25:33;97266.41;;;19.17;44.36
47080;BME280;33067;49.296;14.470;2022-10-16T07:28:05;97268.62;;;19.07;44.32
47080;BME280;33067;49.296;14.470;2022-10-16T07:30:25;97273.32;;;19.37;44.40
47080;BME280;33067;49.296;14.470;2022-10-16T07:32:50;97278.55;;;19.34;44.64
47080;BME280;33067;49.296;14.470;2022-10-16T07:35:16;97279.76;;;19.19;44.57
47080;BME280;33067;49.296;14.470;2022-10-16T07:37:45;97277.32;;;19.25;44.41
47080;BME280;33067;49.296;14.470;2022-10-16T07:40:08;97271.10;;;19.44;44.15
47080;BME280;33067;49.296;14.470;2022-10-16T07:42:33;97268.23;;;19.20;44.45
47080;BME280;33067;49.296;14.470;2022-10-16T07:44:58;97272.28;;;19.78;44.55
47080;BME280;33067;49.296;14.470;2022-10-16T07:47:23;97274.66;;;19.54;44.61
47080;BME280;33067;49.296;14.470;2022-10-16T07:49:49;97276.88;;;19.54;44.79
47080;BME280;33067;49.296;14.470;2022-10-16T07:52:14;97278.93;;;19.76;44.79
47080;BME280;33067;49.296;14.470;2022-10-16T07:54:41;97277.99;;;19.90;44.71
47080;BME280;33067;49.296;14.470;2022-10-16T07:57:15;97279.19;;;19.94;44.18
47080;BME280;33067;49.296;14.470;2022-10-16T07:59:30;97277.47;;;19.71;43.93
47080;BME280;33067;49.296;14.470;2022-10-16T08:01:56;97271.60;;;19.71;43.78
47080;BME280;33067;49.296;14.470;2022-10-16T08:04:21;97270.26;;;19.62;44.23
47080;BME280;33067;49.296;14.470;2022-10-16T08:06:49;97266.92;;;19.84;44.14
47080;BME280;33067;49.296;14.470;2022-10-16T08:09:17;97264.86;;;19.52;44.38
47080;BME280;33067;49.296;14.470;2022-10-16T08:11:38;97268.39;;;19.60;44.40
47080;BME280;33067;49.296;14.470;2022-10-16T08:14:03;97263.25;;;19.56;44.82
47080;BME280;33067;49.296;14.470;2022-10-16T08:16:29;97263.89;;;19.74;44.98
47080;BME280;33067;49.296;14.470;2022-10-16T08:18:53;97266.05;;;19.99;44.73
47080;BME280;33067;49.296;14.470;2022-10-16T08:21:21;97266.57;;;19.83;45.04
47080;BME280;33067;49.296;14.470;2022-10-16T08:23:45;97263.31;;;20.39;44.68
47080;BME280;33067;49.296;14.470;2022-10-16T08:26:10;97269.19;;;20.61;44.34
47080;BME280;33067;49.296;14.470;2022-10-16T08:28:36;97269.39;;;20.72;44.27
47080;BME280;33067;49.296;14.470;2022-10-16T08:31:06;97275.13;;;20.63;44.07
47080;BME280;33067;49.296;14.470;2022-10-16T08:33:26;97282.13;;;20.52;44.05
47080;BME280;33067;49.296;14.470;2022-10-16T08:35:52;97288.39;;;20.66;43.86
47080;BME280;33067;49.296;14.470;2022-10-16T08:38:17;97293.37;;;21.27;43.82
47080;BME280;33067;49.296;14.470;2022-10-16T08:40:43;97289.36;;;20.85;43.86
47080;BME280;33067;49.296;14.470;2022-10-16T08:43:22;97291.23;;;20.82;44.18
47080;BME280;33067;49.296;14.470;2022-10-16T08:45:38;97300.53;;;20.74;44.22
47080;BME280;33067;49.296;14.470;2022-10-16T08:48:06;97302.52;;;20.88;44.17
47080;BME280;33067;49.296;14.470;2022-10-16T08:50:25;97301.29;;;21.25;43.27
47080;BME280;33067;49.296;14.470;2022-10-16T08:52:48;97308.61;;;21.03;43.88
47080;BME280;33067;49.296;14.470;2022-10-16T08:55:28;97311.23;;;21.17;43.60
47080;BME280;33067;49.296;14.470;2022-10-16T08:57:39;97315.38;;;21.27;43.41
47080;BME280;33067;49.296;14.470;2022-10-16T09:00:12;97316.01;;;21.39;43.30
47080;BME280;33067;49.296;14.470;2022-10-16T09:02:33;97311.35;;;21.29;43.34
47080;BME280;33067;49.296;14.470;2022-10-16T09:05:02;97311.92;;;21.27;43.46
47080;BME280;33067;49.296;14.470;2022-10-16T09:07:26;97307.03;;;21.19;42.90
47080;BME280;33067;49.296;14.470;2022-10-16T09:09:55;97303.72;;;21.27;43.35
47080;BME280;33067;49.296;14.470;2022-10-16T09:12:14;97303.64;;;21.43;43.15
47080;BME280;33067;49.296;14.470;2022-10-16T09:14:45;97305.52;;;21.52;43.28
47080;BME280;33067;49.296;14.470;2022-10-16T09:17:06;97307.52;;;21.73;42.85
47080;BME280;33067;49.296;14.470;2022-10-16T09:19:30;97313.59;;;21.70;43.09
47080;BME280;33067;49.296;14.470;2022-10-16T09:21:51;97308.61;;;21.73;42.66
47080;BME280;33067;49.296;14.470;2022-10-16T09:24:18;97311.61;;;22.17;42.53
47080;BME280;33067;49.296;14.470;2022-10-16T09:26:41;97310.82;;;21.63;42.61
47080;BME280;33067;49.296;14.470;2022-10-16T09:29:10;97310.77;;;22.11;42.54
47080;BME280;33067;49.296;14.470;2022-10-16T09:31:36;97312.72;;;22.31;42.30
47080;BME280;33067;49.296;14.470;2022-10-16T09:33:59;97313.22;;;21.31;42.95
47080;BME280;33067;49.296;14.470;2022-10-16T09:36:24;97314.40;;;21.40;43.10
47080;BME280;33067;49.296;14.470;2022-10-16T09:38:48;97318.63;;;22.09;42.85
47080;BME280;33067;49.296;14.470;2022-10-16T09:41:17;97313.81;;;21.63;42.50
47080;BME280;33067;49.296;14.470;2022-10-16T09:43:41;97315.59;;;22.04;42.78
47080;BME280;33067;49.296;14.470;2022-10-16T09:46:05;97322.12;;;21.71;43.27
47080;BME280;33067;49.296;14.470;2022-10-16T09:48:33;97327.31;;;22.02;42.97
47080;BME280;33067;49.296;14.470;2022-10-16T09:50:59;97328.28;;;22.00;42.86
47080;BME280;33067;49.296;14.470;2022-10-16T09:53:23;97329.08;;;22.36;42.25
47080;BME280;33067;49.296;14.470;2022-10-16T09:55:49;97329.55;;;22.16;42.70
47080;BME280;33067;49.296;14.470;2022-10-16T09:58:13;97329.83;;;21.83;42.29
47080;BME280;33067;49.296;14.470;2022-10-16T10:00:41;97331.40;;;22.21;42.81
47080;BME280;33067;49.296;14.470;2022-10-16T10:03:09;97331.30;;;22.24;42.11
47080;BME280;33067;49.296;14.470;2022-10-16T10:05:29;97328.30;;;22.18;42.56
47080;BME280;33067;49.296;14.470;2022-10-16T10:08:03;97324.86;;;22.10;42.64
47080;BME280;33067;49.296;14.470;2022-10-16T10:10:22;97329.85;;;22.70;42.03
47080;BME280;33067;49.296;14.470;2022-10-16T10:12:46;97335.19;;;22.60;42.09
47080;BME280;33067;49.296;14.470;2022-10-16T10:15:13;97339.88;;;22.69;42.09
47080;BME280;33067;49.296;14.470;2022-10-16T10:17:46;97341.29;;;22.78;41.89
47080;BME280;33067;49.296;14.470;2022-10-16T10:20:15;97336.65;;;23.22;41.64
47080;BME280;33067;49.296;14.470;2022-10-16T10:22:32;97336.77;;;23.42;40.85
47080;BME280;33067;49.296;14.470;2022-10-16T10:24:59;97331.77;;;23.32;41.05
47080;BME280;33067;49.296;14.470;2022-10-16T10:27:25;97328.60;;;23.47;40.68
47080;BME280;33067;49.296;14.470;2022-10-16T10:29:53;97322.65;;;23.42;40.77
47080;BME280;33067;49.296;14.470;2022-10-16T10:32:26;97316.97;;;23.42;40.49
47080;BME280;33067;49.296;14.470;2022-10-16T10:34:49;97315.87;;;23.77;40.08
47080;BME280;33067;49.296;14.470;2022-10-16T10:37:24;97312.46;;;23.00;40.44
47080;BME280;33067;49.296;14.470;2022-10-16T10:39:36;97308.80;;;23.33;40.53
47080;BME280;33067;49.296;14.470;2022-10-16T10:42:08;97311.89;;;23.74;40.38
47080;BME280;33067;49.296;14.470;2022-10-16T10:44:30;97307.82;;;23.08;41.02
47080;BME280;33067;49.296;14.470;2022-10-16T10:46:51;97300.13;;;23.27;40.57
47080;BME280;33067;49.296;14.470;2022-10-16T10:49:25;97301.24;;;23.90;39.99
47080;BME280;33067;49.296;14.470;2022-10-16T10:51:53;97299.48;;;23.89;40.24
47080;BME280;33067;49.296;14.470;2022-10-16T10:54:13;97300.76;;;23.87;39.87
47080;BME280;33067;49.296;14.470;2022-10-16T10:56:40;97298.09;;;23.83;39.35
47080;BME280;33067;49.296;14.470;2022-10-16T10:59:06;97295.22;;;24.15;39.63
47080;BME280;33067;49.296;14.470;2022-10-16T11:01:28;97292.33;;;23.97;39.71
47080;BME280;33067;49.296;14.470;2022-10-16T11:04:03;97294.79;;;24.20;39.68
47080;BME280;33067;49.296;14.470;2022-10-16T11:06:17;97300.53;;;24.40;39.39
47080;BME280;33067;49.296;14.470;2022-10-16T11:08:43;97306.19;;;24.50;39.06
47080;BME280;33067;49.296;14.470;2022-10-16T11:11:11;97304.75;;;24.47;38.73
47080;BME280;33067;49.296;14.470;2022-10-16T11:13:42;97300.80;;;24.58;38.49
47080;BME280;33067;49.296;14.470;2022-10-16T11:16:13;97295.75;;;24.65;38.26
47080;BME280;33067;49.296;14.470;2022-10-16T11:18:55;97294.90;;;24.72;38.00
47080;BME280;33067;49.296;14.470;2022-10-16T11:21:02;97291.91;;;24.90;37.99
47080;BME280;33067;49.296;14.470;2022-10-16T11:23:18;97290.63;;;25.05;37.49
47080;BME280;33067;49.296;14.470;2022-10-16T11:25:49;97290.25;;;24.59;37.98
47080;BME280;33067;49.296;14.470;2022-10-16T11:28:13;97289.62;;;24.80;38.00
47080;BME280;33067;49.296;14.470;2022-10-16T11:30:43;97288.34;;;24.98;37.49
47080;BME280;33067;49.296;14.470;2022-10-16T11:33:10;97285.89;;;24.71;37.06
47080;BME280;33067;49.296;14.470;2022-10-16T11:35:38;97286.02;;;24.93;37.28
47080;BME280;33067;49.296;14.470;2022-10-16T11:37:57;97286.08;;;24.95;35.93
47080;BME280;33067;49.296;14.470;2022-10-16T11:40:24;97282.90;;;25.03;36.17
47080;BME280;33067;49.296;14.470;2022-10-16T11:45:15;97286.24;;;24.29;38.32
47080;BME280;33067;49.296;14.470;2022-10-16T11:47:35;97289.08;;;24.54;38.65
47080;BME280;33067;49.296;14.470;2022-10-16T11:50:01;97289.39;;;24.43;38.63
47080;BME280;33067;49.296;14.470;2022-10-16T11:52:28;97288.97;;;24.94;38.12
47080;BME280;33067;49.296;14.470;2022-10-16T11:54:53;97295.06;;;25.10;38.15
47080;BME280;33067;49.296;14.470;2022-10-16T11:57:20;97295.00;;;25.10;37.84
47080;BME280;33067;49.296;14.470;2022-10-16T11:59:45;97293.82;;;23.91;38.60
47080;BME280;33067;49.296;14.470;2022-10-16T12:04:38;97282.80;;;24.67;37.58
47080;BME280;33067;49.296;14.470;2022-10-16T12:07:03;97284.85;;;25.24;37.68
47080;BME280;33067;49.296;14.470;2022-10-16T12:09:28;97281.53;;;25.27;37.25
47080;BME280;33067;49.296;14.470;2022-10-16T12:11:51;97279.23;;;24.99;37.81
47080;BME280;33067;49.296;14.470;2022-10-16T12:14:34;97277.04;;;24.34;38.01
47080;BME280;33067;49.296;14.470;2022-10-16T12:16:51;97274.06;;;24.77;38.15
47080;BME280;33067;49.296;14.470;2022-10-16T12:19:12;97270.06;;;24.74;37.84
47080;BME280;33067;49.296;14.470;2022-10-16T12:21:32;97272.81;;;24.63;38.48
47080;BME280;33067;49.296;14.470;2022-10-16T12:24:02;97270.52;;;25.31;38.33
47080;BME280;33067;49.296;14.470;2022-10-16T12:26:26;97268.93;;;25.51;38.14
47080;BME280;33067;49.296;14.470;2022-10-16T12:28:49;97267.40;;;25.04;38.09
47080;BME280;33067;49.296;14.470;2022-10-16T12:31:15;97263.87;;;25.57;37.58
47080;BME280;33067;49.296;14.470;2022-10-16T12:33:42;97267.53;;;24.78;38.05
47080;BME280;33067;49.296;14.470;2022-10-16T12:36:12;97268.16;;;24.84;37.89
47080;BME280;33067;49.296;14.470;2022-10-16T12:38:37;97267.50;;;25.48;37.72
47080;BME280;33067;49.296;14.470;2022-10-16T12:41:00;97270.72;;;25.27;37.64
47080;BME280;33067;49.296;14.470;2022-10-16T12:43:34;97273.12;;;24.51;38.27
47080;BME280;33067;49.296;14.470;2022-10-16T12:46:02;97272.12;;;25.32;37.96
47080;BME280;33067;49.296;14.470;2022-10-16T12:48:22;97268.66;;;25.00;37.99